createdAt,value
2023-01-30T00:01:21.643Z,-0.02
2023-01-30T00:03:49.366Z,0.00
2023-01-30T00:06:17.166Z,0.00
2023-01-30T00:08:45.090Z,0.00
2023-01-30T00:11:15.706Z,0.00
2023-01-30T00:13:44.026Z,-0.02
2023-01-30T00:16:12.616Z,-0.10
2023-01-30T00:18:42.959Z,-0.10
2023-01-30T00:21:14.411Z,-0.10
2023-01-30T00:23:43.006Z,-0.20
2023-01-30T00:26:12.290Z,-0.20
2023-01-30T00:28:40.787Z,-0.20
2023-01-30T00:31:09.041Z,-0.20
2023-01-30T00:33:39.387Z,-0.20
2023-01-30T00:36:07.822Z,-0.20
2023-01-30T00:38:35.590Z,-0.16
2023-01-30T00:41:03.741Z,-0.14
2023-01-30T00:43:50.206Z,-0.10
2023-01-30T00:46:52.303Z,-0.12
2023-01-30T00:49:20.791Z,-0.10
2023-01-30T00:51:48.595Z,-0.14
2023-01-30T00:54:16.317Z,-0.20
2023-01-30T00:56:43.946Z,-0.20
2023-01-30T00:59:11.719Z,-0.20
2023-01-30T01:01:39.763Z,-0.22
2023-01-30T01:04:10.433Z,-0.30
2023-01-30T01:06:39.250Z,-0.30
2023-01-30T01:09:07.513Z,-0.28
2023-01-30T01:11:35.459Z,-0.24
2023-01-30T01:14:06.311Z,-0.28
2023-01-30T01:16:36.866Z,-0.30
2023-01-30T01:19:05.309Z,-0.28
2023-01-30T01:21:33.084Z,-0.30
2023-01-30T01:24:01.151Z,-0.28
2023-01-30T01:26:28.922Z,-0.30
2023-01-30T01:28:58.412Z,-0.30
2023-01-30T01:31:27.011Z,-0.30
2023-01-30T01:33:54.802Z,-0.36
2023-01-30T01:39:10.786Z,-0.40
2023-01-30T01:41:38.580Z,-0.40
2023-01-30T01:44:13.078Z,-0.40
2023-01-30T01:46:53.102Z,-0.40
2023-01-30T01:49:35.345Z,-0.40
2023-01-30T01:52:15.810Z,-0.40
2023-01-30T01:54:54.370Z,-0.50
2023-01-30T01:57:49.320Z,-0.50
2023-01-30T02:00:20.958Z,-0.60
2023-01-30T02:03:03.087Z,-0.60
2023-01-30T02:05:36.592Z,-0.60
2023-01-30T02:08:26.755Z,-0.60
2023-01-30T02:11:07.696Z,-0.60
2023-01-30T02:13:35.475Z,-0.60
2023-01-30T02:16:06.809Z,-0.60
2023-01-30T02:18:39.107Z,-0.64
2023-01-30T02:21:40.083Z,-0.62
2023-01-30T02:24:55.511Z,-0.70
2023-01-30T02:28:08.453Z,-0.70
2023-01-30T02:30:46.445Z,-0.74
2023-01-30T02:33:33.698Z,-0.80
2023-01-30T02:36:31.218Z,-0.84
2023-01-30T02:39:13.737Z,-0.90
2023-01-30T02:42:04.597Z,-0.90
2023-01-30T02:45:09.717Z,-0.90
2023-01-30T02:47:56.893Z,-0.90
2023-01-30T02:50:44.505Z,-0.90
2023-01-30T02:53:12.745Z,-1.00
2023-01-30T02:55:42.768Z,-1.00
2023-01-30T02:58:11.039Z,-1.10
2023-01-30T03:01:31.035Z,-1.10
2023-01-30T03:04:31.835Z,-1.10
2023-01-30T03:07:22.059Z,-1.10
2023-01-30T03:10:16.930Z,-1.10
2023-01-30T03:13:03.425Z,-1.10
2023-01-30T03:15:38.800Z,-1.10
2023-01-30T03:18:07.790Z,-1.04
2023-01-30T03:20:41.167Z,-1.00
2023-01-30T03:23:08.910Z,-1.00
2023-01-30T03:25:41.412Z,-1.00
2023-01-30T03:28:12.075Z,-1.00
2023-01-30T03:30:39.722Z,-1.00
2023-01-30T03:33:07.707Z,-1.00
2023-01-30T03:35:35.772Z,-1.00
2023-01-30T03:38:03.739Z,-1.10
2023-01-30T03:40:31.829Z,-1.10
2023-01-30T03:42:59.581Z,-1.10
2023-01-30T03:45:27.296Z,-1.12
2023-01-30T03:47:54.982Z,-1.10
2023-01-30T03:50:22.673Z,-1.10
2023-01-30T03:52:50.342Z,-1.02
2023-01-30T03:55:18.390Z,-1.00
2023-01-30T03:57:46.281Z,-1.00
2023-01-30T04:00:14.946Z,-1.00
2023-01-30T04:02:44.896Z,-1.00
2023-01-30T04:05:12.914Z,-1.00
2023-01-30T04:07:40.515Z,-1.00
2023-01-30T04:10:11.662Z,-1.00
2023-01-30T04:12:39.268Z,-1.06
2023-01-30T04:15:07.469Z,-1.10
2023-01-30T04:17:35.126Z,-1.10
2023-01-30T04:20:02.935Z,-1.10
2023-01-30T04:22:30.938Z,-1.10
2023-01-30T04:24:58.634Z,-1.10
2023-01-30T04:27:26.293Z,-1.10
2023-01-30T04:29:53.937Z,-1.02
2023-01-30T04:32:21.736Z,-1.00
2023-01-30T04:34:49.503Z,-1.02
2023-01-30T04:37:17.157Z,-1.00
2023-01-30T04:39:44.792Z,-1.02
2023-01-30T04:42:12.470Z,-1.04
2023-01-30T04:44:40.170Z,-1.10
2023-01-30T04:47:07.950Z,-1.10
2023-01-30T04:49:35.737Z,-1.10
2023-01-30T04:52:03.758Z,-1.10
2023-01-30T04:54:31.406Z,-1.00
2023-01-30T04:56:59.220Z,-1.00
2023-01-30T04:59:27.001Z,-0.96
2023-01-30T05:01:55.316Z,-0.96
2023-01-30T05:04:23.200Z,-1.00
2023-01-30T05:06:51.016Z,-0.92
2023-01-30T05:09:18.814Z,-0.96
2023-01-30T05:11:46.542Z,-0.90
2023-01-30T05:14:14.447Z,-0.90
2023-01-30T05:16:42.168Z,-0.90
2023-01-30T05:19:13.332Z,-0.90
2023-01-30T05:21:41.083Z,-0.90
2023-01-30T05:24:08.857Z,-0.90
2023-01-30T05:26:36.558Z,-0.88
2023-01-30T05:29:04.377Z,-0.80
2023-01-30T05:31:32.242Z,-0.80
2023-01-30T05:33:59.905Z,-0.80
2023-01-30T05:36:27.620Z,-0.80
2023-01-30T05:38:55.552Z,-0.80
2023-01-30T05:41:23.326Z,-0.80
2023-01-30T05:43:51.616Z,-0.80
2023-01-30T05:46:20.124Z,-0.80
2023-01-30T05:48:47.955Z,-0.80
2023-01-30T05:51:22.628Z,-0.80
2023-01-30T05:53:51.094Z,-0.80
2023-01-30T05:56:20.023Z,-0.82
2023-01-30T05:58:56.349Z,-0.80
2023-01-30T06:01:24.640Z,-0.80
2023-01-30T06:03:53.864Z,-0.70
2023-01-30T06:06:23.216Z,-0.70
2023-01-30T06:08:56.443Z,-0.70
2023-01-30T06:11:24.985Z,-0.70
2023-01-30T06:13:52.840Z,-0.70
2023-01-30T06:16:22.910Z,-0.70
2023-01-30T06:18:55.712Z,-0.70
2023-01-30T06:21:23.482Z,-0.70
2023-01-30T06:23:51.378Z,-0.70
2023-01-30T06:26:19.052Z,-0.70
2023-01-30T06:28:46.839Z,-0.70
2023-01-30T06:31:14.575Z,-0.70
2023-01-30T06:33:44.044Z,-0.70
2023-01-30T06:36:11.772Z,-0.70
2023-01-30T06:38:39.589Z,-0.70
2023-01-30T06:41:07.307Z,-0.60
2023-01-30T06:43:35.031Z,-0.60
2023-01-30T06:46:02.852Z,-0.58
2023-01-30T06:48:30.914Z,-0.50
2023-01-30T06:50:58.805Z,-0.50
2023-01-30T06:53:30.493Z,-0.50
2023-01-30T06:56:02.178Z,-0.56
2023-01-30T06:58:29.975Z,-0.56
2023-01-30T07:00:57.910Z,-0.60
2023-01-30T07:03:25.684Z,-0.60
2023-01-30T07:05:54.128Z,-0.60
2023-01-30T07:08:24.018Z,-0.60
2023-01-30T07:10:52.202Z,-0.50
2023-01-30T07:13:20.393Z,-0.50
2023-01-30T07:15:50.646Z,-0.40
2023-01-30T07:18:18.622Z,-0.40
2023-01-30T07:20:49.556Z,-0.40
2023-01-30T07:23:18.057Z,-0.36
2023-01-30T07:25:45.972Z,-0.30
2023-01-30T07:28:13.631Z,-0.32
2023-01-30T07:30:41.626Z,-0.38
2023-01-30T07:33:09.550Z,-0.40
2023-01-30T07:35:38.794Z,-0.40
2023-01-30T07:38:06.722Z,-0.30
2023-01-30T07:40:34.749Z,-0.30
2023-01-30T07:43:10.511Z,-0.20
2023-01-30T07:45:41.466Z,-0.20
2023-01-30T07:48:13.302Z,-0.18
2023-01-30T07:50:42.344Z,-0.12
2023-01-30T07:53:14.039Z,-0.10
2023-01-30T07:55:42.559Z,-0.10
2023-01-30T07:58:17.146Z,-0.18
2023-01-30T08:00:47.408Z,-0.20
2023-01-30T08:03:18.996Z,-0.20
2023-01-30T08:05:47.361Z,-0.20
2023-01-30T08:08:15.417Z,-0.20
2023-01-30T08:10:44.361Z,-0.10
2023-01-30T08:13:12.256Z,-0.10
2023-01-30T08:15:40.165Z,-0.10
2023-01-30T08:18:10.302Z,-0.10
2023-01-30T08:20:38.089Z,-0.10
2023-01-30T08:23:06.110Z,-0.08
2023-01-30T08:25:35.457Z,-0.10
2023-01-30T08:28:04.898Z,-0.10
2023-01-30T08:30:33.226Z,-0.08
2023-01-30T08:33:00.997Z,-0.10
2023-01-30T08:35:28.795Z,-0.10
2023-01-30T08:37:56.529Z,0.00
2023-01-30T08:40:24.246Z,0.00
2023-01-30T08:42:52.058Z,0.08
2023-01-30T08:45:19.766Z,0.10
2023-01-30T08:47:47.479Z,0.10
2023-01-30T08:50:15.631Z,0.10
2023-01-30T08:52:43.472Z,0.12
2023-01-30T08:55:13.324Z,0.10
2023-01-30T08:57:41.096Z,0.10
2023-01-30T09:00:19.332Z,0.10
2023-01-30T09:02:47.563Z,0.00
2023-01-30T09:05:15.577Z,0.00
2023-01-30T09:07:43.298Z,0.00
2023-01-30T09:10:11.343Z,0.00
2023-01-30T09:12:39.077Z,0.00
2023-01-30T09:15:08.002Z,0.00
2023-01-30T09:17:35.878Z,0.00
2023-01-30T09:20:09.604Z,0.00
2023-01-30T09:22:38.293Z,0.00
2023-01-30T09:25:07.037Z,0.00
2023-01-30T09:27:35.246Z,-0.10
2023-01-30T09:30:05.771Z,-0.10
2023-01-30T09:32:34.561Z,-0.10
2023-01-30T09:35:02.254Z,-0.10
2023-01-30T09:37:30.037Z,-0.10
2023-01-30T09:39:57.871Z,-0.10
2023-01-30T09:43:11.470Z,-0.10
2023-01-30T09:46:25.413Z,-0.10
2023-01-30T09:49:25.019Z,-0.12
2023-01-30T09:52:18.696Z,-0.20
2023-01-30T09:54:47.536Z,-0.20
2023-01-30T09:57:25.598Z,-0.20
2023-01-30T10:00:15.399Z,-0.20
2023-01-30T10:02:57.579Z,-0.20
2023-01-30T10:05:40.571Z,-0.20
2023-01-30T10:08:42.846Z,-0.18
2023-01-30T10:11:30.025Z,-0.20
2023-01-30T10:14:25.591Z,-0.20
2023-01-30T10:17:50.291Z,-0.20
2023-01-30T10:20:25.840Z,-0.20
2023-01-30T10:23:34.608Z,-0.20
2023-01-30T10:26:12.126Z,-0.20
2023-01-30T10:29:07.962Z,-0.20
2023-01-30T10:32:01.812Z,-0.10
2023-01-30T10:34:38.751Z,-0.10
2023-01-30T10:37:19.864Z,0.00
2023-01-30T10:40:06.144Z,0.10
2023-01-30T10:42:43.321Z,0.10
2023-01-30T10:45:17.962Z,0.10
2023-01-30T10:48:10.842Z,0.10
2023-01-30T10:51:03.414Z,0.10
2023-01-30T10:53:52.667Z,0.10
2023-01-30T10:56:58.480Z,0.10
2023-01-30T10:59:56.126Z,0.16
2023-01-30T11:02:47.424Z,0.20
2023-01-30T11:05:25.853Z,0.30
2023-01-30T11:07:53.582Z,0.30
2023-01-30T11:10:28.160Z,0.30
2023-01-30T11:13:12.228Z,0.30
2023-01-30T11:15:42.240Z,0.30
2023-01-30T11:21:10.296Z,0.30
2023-01-30T11:23:45.440Z,0.30
2023-01-30T11:26:46.754Z,0.30
2023-01-30T11:29:25.924Z,0.40
2023-01-30T11:31:54.613Z,0.50
2023-01-30T11:34:25.408Z,0.50
2023-01-30T11:36:53.608Z,0.50
2023-01-30T11:39:28.223Z,0.50
2023-01-30T11:41:57.146Z,0.50
2023-01-30T11:44:37.496Z,0.50
2023-01-30T11:47:23.420Z,0.50
2023-01-30T11:50:04.596Z,0.50
2023-01-30T11:52:43.295Z,0.60
2023-01-30T11:55:16.836Z,0.60
2023-01-30T11:57:53.883Z,0.70
2023-01-30T12:00:40.946Z,0.70
2023-01-30T12:03:18.284Z,0.74
2023-01-30T12:05:47.631Z,0.74
2023-01-30T12:08:40.780Z,0.74
2023-01-30T12:11:42.219Z,0.78
2023-01-30T12:14:37.834Z,0.80
2023-01-30T12:17:26.318Z,0.82
2023-01-30T12:20:57.811Z,0.90
2023-01-30T12:23:48.627Z,1.00
2023-01-30T12:26:33.236Z,1.00
2023-01-30T12:29:24.422Z,1.00
2023-01-30T12:32:12.339Z,1.00
2023-01-30T12:34:42.222Z,1.02
2023-01-30T12:37:39.261Z,1.00
2023-01-30T12:40:34.420Z,1.00
2023-01-30T12:43:25.458Z,1.00
2023-01-30T12:46:19.504Z,1.00
2023-01-30T12:49:11.545Z,1.08
2023-01-30T12:52:04.319Z,1.10
2023-01-30T12:55:00.324Z,1.10
2023-01-30T12:58:02.590Z,1.10
2023-01-30T13:00:53.541Z,1.10
2023-01-30T13:03:39.595Z,1.10
2023-01-30T13:06:46.767Z,1.10
2023-01-30T13:09:32.503Z,1.10
2023-01-30T13:12:35.843Z,1.16
2023-01-30T13:15:22.839Z,1.20
2023-01-30T13:18:37.311Z,1.20
2023-01-30T13:21:15.038Z,1.24
2023-01-30T13:24:17.085Z,1.26
2023-01-30T13:26:48.545Z,1.28
2023-01-30T13:29:41.006Z,1.22
2023-01-30T13:32:34.737Z,1.20
2023-01-30T13:35:20.669Z,1.28
2023-01-30T13:37:52.277Z,1.30
2023-01-30T13:40:27.605Z,1.30
2023-01-30T13:43:15.603Z,1.40
2023-01-30T13:45:48.847Z,1.40
2023-01-30T13:49:30.368Z,1.40
2023-01-30T13:52:31.837Z,1.40
2023-01-30T13:55:30.074Z,1.42
2023-01-30T13:58:19.583Z,1.48
2023-01-30T14:00:56.204Z,1.50
2023-01-30T14:03:35.334Z,1.50
2023-01-30T14:06:12.905Z,1.60
2023-01-30T14:08:46.815Z,1.60
2023-01-30T14:11:48.619Z,1.70
2023-01-30T14:14:19.412Z,1.70
2023-01-30T14:16:52.326Z,1.70
2023-01-30T14:19:57.072Z,1.70
2023-01-30T14:22:52.498Z,1.60
2023-01-30T14:25:23.175Z,1.60
2023-01-30T14:27:54.358Z,1.62
2023-01-30T14:30:49.766Z,1.70
2023-01-30T14:33:23.724Z,1.70
2023-01-30T14:36:00.545Z,1.70
2023-01-30T14:38:37.379Z,1.74
2023-01-30T14:41:05.066Z,1.78
2023-01-30T14:43:42.136Z,1.72
2023-01-30T14:46:32.681Z,1.70
2023-01-30T14:49:21.146Z,1.70
2023-01-30T14:51:49.848Z,1.70
2023-01-30T14:54:17.566Z,1.78
2023-01-30T14:57:03.049Z,1.80
2023-01-30T14:59:38.663Z,1.86
2023-01-30T15:02:15.238Z,1.82
2023-01-30T15:04:56.285Z,1.88
2023-01-30T15:07:45.826Z,1.80
2023-01-30T15:11:16.199Z,1.80
2023-01-30T15:14:14.727Z,1.80
2023-01-30T15:17:32.463Z,1.80
2023-01-30T15:20:18.247Z,1.80
2023-01-30T15:23:14.296Z,1.80
2023-01-30T15:26:09.733Z,1.84
2023-01-30T15:29:01.854Z,1.90
2023-01-30T15:31:29.705Z,1.88
2023-01-30T15:33:57.672Z,1.86
2023-01-30T15:36:33.634Z,1.80
2023-01-30T15:39:16.524Z,1.80
2023-01-30T15:41:44.463Z,1.80
2023-01-30T15:44:40.833Z,1.80
2023-01-30T15:47:42.255Z,1.80
2023-01-30T15:50:11.065Z,1.90
2023-01-30T15:52:47.232Z,1.90
2023-01-30T15:55:31.564Z,1.90
2023-01-30T15:58:13.176Z,1.90
2023-01-30T16:00:47.758Z,1.90
2023-01-30T16:03:24.795Z,1.90
2023-01-30T16:05:56.777Z,1.90
2023-01-30T16:08:27.081Z,1.90
2023-01-30T16:10:55.804Z,1.98
2023-01-30T16:13:24.836Z,2.00
2023-01-30T16:16:13.141Z,2.00
2023-01-30T16:18:53.715Z,2.00
2023-01-30T16:21:28.723Z,2.00
2023-01-30T16:24:04.967Z,2.00
2023-01-30T16:26:35.685Z,1.94
2023-01-30T16:29:08.696Z,1.90
2023-01-30T16:31:41.490Z,1.90
2023-01-30T16:34:37.636Z,1.92
2023-01-30T16:37:20.053Z,2.00
2023-01-30T16:40:03.852Z,2.00
2023-01-30T16:42:31.707Z,2.00
2023-01-30T16:45:52.403Z,2.00
2023-01-30T16:48:20.180Z,1.90
2023-01-30T16:51:04.483Z,1.90
2023-01-30T16:53:33.723Z,1.90
2023-01-30T16:56:09.819Z,1.82
2023-01-30T16:58:38.798Z,1.84
2023-01-30T17:01:08.945Z,1.82
2023-01-30T17:03:43.238Z,1.86
2023-01-30T17:06:26.293Z,1.88
2023-01-30T17:08:58.743Z,1.88
2023-01-30T17:11:35.857Z,1.82
2023-01-30T17:14:26.152Z,1.80
2023-01-30T17:17:07.623Z,1.80
2023-01-30T17:19:36.541Z,1.80
2023-01-30T17:22:24.546Z,1.80
2023-01-30T17:25:04.037Z,1.82
2023-01-30T17:27:32.614Z,1.90
2023-01-30T17:30:00.298Z,1.90
2023-01-30T17:32:28.194Z,1.90
2023-01-30T17:34:56.360Z,1.90
2023-01-30T17:37:24.055Z,1.88
2023-01-30T17:39:51.749Z,1.80
2023-01-30T17:42:22.162Z,1.80
2023-01-30T17:44:52.568Z,1.82
2023-01-30T17:47:21.861Z,1.90
2023-01-30T17:49:49.599Z,1.90
2023-01-30T17:52:18.780Z,1.90
2023-01-30T17:54:46.535Z,1.90
2023-01-30T17:57:17.012Z,1.90
2023-01-30T17:59:44.931Z,1.90
2023-01-30T18:02:13.400Z,1.90
2023-01-30T18:04:41.129Z,1.90
2023-01-30T18:07:16.281Z,1.90
2023-01-30T18:09:44.059Z,1.98
2023-01-30T18:12:11.781Z,2.00
2023-01-30T18:14:39.440Z,2.00
2023-01-30T18:17:07.289Z,2.00
2023-01-30T18:19:35.554Z,2.06
2023-01-30T18:22:03.797Z,2.04
2023-01-30T18:24:31.568Z,2.00
2023-01-30T18:27:01.741Z,2.00
2023-01-30T18:29:29.848Z,2.00
2023-01-30T18:32:03.561Z,2.00
2023-01-30T18:34:32.894Z,2.10
2023-01-30T18:37:00.726Z,2.10
2023-01-30T18:39:28.596Z,2.10
2023-01-30T18:41:56.303Z,2.10
2023-01-30T18:44:24.048Z,2.06
2023-01-30T18:46:51.781Z,2.00
2023-01-30T18:49:19.596Z,2.00
2023-01-30T18:51:47.377Z,2.00
2023-01-30T18:54:15.198Z,2.00
2023-01-30T18:56:42.944Z,2.00
2023-01-30T18:59:11.877Z,2.00
2023-01-30T19:01:42.650Z,2.10
2023-01-30T19:04:11.449Z,2.10
2023-01-30T19:06:42.863Z,2.10
2023-01-30T19:09:16.819Z,2.10
2023-01-30T19:12:03.471Z,2.10
2023-01-30T19:14:31.267Z,2.08
2023-01-30T19:16:59.021Z,2.00
2023-01-30T19:19:27.300Z,2.00
2023-01-30T19:21:55.250Z,2.00
2023-01-30T19:24:23.789Z,2.00
2023-01-30T19:26:51.497Z,2.08
2023-01-30T19:29:19.463Z,2.10
2023-01-30T19:31:47.475Z,2.10
2023-01-30T19:34:15.323Z,2.02
2023-01-30T19:36:43.138Z,2.00
2023-01-30T19:39:13.472Z,2.00
2023-01-30T19:41:41.240Z,2.00
2023-01-30T19:44:11.737Z,2.00
2023-01-30T19:46:39.503Z,2.00
2023-01-30T19:49:07.302Z,2.02
2023-01-30T19:51:35.594Z,2.10
2023-01-30T19:54:07.445Z,2.10
2023-01-30T19:56:39.242Z,2.10
2023-01-30T19:59:07.103Z,2.10
2023-01-30T20:01:35.713Z,2.10
2023-01-30T20:04:04.274Z,2.10
2023-01-30T20:06:35.604Z,2.10
2023-01-30T20:09:08.174Z,2.10
2023-01-30T20:11:39.029Z,2.20
2023-01-30T20:14:07.599Z,2.20
2023-01-30T20:16:36.144Z,2.20
2023-01-30T20:19:13.519Z,2.20
2023-01-30T20:21:42.930Z,2.20
2023-01-30T20:24:15.088Z,2.20
2023-01-30T20:26:47.108Z,2.20
2023-01-30T20:29:17.576Z,2.20
2023-01-30T20:31:45.595Z,2.20
2023-01-30T20:34:14.791Z,2.22
2023-01-30T20:36:42.551Z,2.30
2023-01-30T20:39:11.528Z,2.30
2023-01-30T20:41:39.694Z,2.30
2023-01-30T20:44:12.401Z,2.30
2023-01-30T20:46:46.557Z,2.20
2023-01-30T20:49:22.985Z,2.20
2023-01-30T20:51:52.581Z,2.20
2023-01-30T20:54:23.498Z,2.20
2023-01-30T20:56:53.942Z,2.30
2023-01-30T20:59:24.578Z,2.30
2023-01-30T21:01:53.832Z,2.30
2023-01-30T21:04:24.534Z,2.30
2023-01-30T21:06:53.588Z,2.30
2023-01-30T21:09:23.531Z,2.30
2023-01-30T21:11:53.397Z,2.30
2023-01-30T21:14:21.750Z,2.30
2023-01-30T21:16:49.579Z,2.30
2023-01-30T21:19:17.947Z,2.30
2023-01-30T21:21:51.148Z,2.30
2023-01-30T21:24:24.791Z,2.30
2023-01-30T21:26:54.624Z,2.30
2023-01-30T21:29:25.581Z,2.30
2023-01-30T21:31:54.040Z,2.32
2023-01-30T21:34:25.118Z,2.30
2023-01-30T21:37:13.975Z,2.30
2023-01-30T21:40:00.487Z,2.30
2023-01-30T21:42:47.266Z,2.30
2023-01-30T21:45:15.613Z,2.30
2023-01-30T21:47:43.565Z,2.36
2023-01-30T21:50:11.545Z,2.40
2023-01-30T21:52:39.208Z,2.38
2023-01-30T21:55:07.791Z,2.38
2023-01-30T21:57:35.582Z,2.34
2023-01-30T22:00:08.481Z,2.34
2023-01-30T22:02:36.533Z,2.32
2023-01-30T22:05:05.542Z,2.38
2023-01-30T22:07:33.195Z,2.40
2023-01-30T22:10:02.287Z,2.40
2023-01-30T22:12:32.032Z,2.40
2023-01-30T22:14:59.729Z,2.40
2023-01-30T22:17:27.497Z,2.40
2023-01-30T22:19:55.171Z,2.40
2023-01-30T22:22:25.609Z,2.30
2023-01-30T22:24:53.309Z,2.30
2023-01-30T22:27:21.119Z,2.30
2023-01-30T22:29:49.229Z,2.30
2023-01-30T22:32:16.872Z,2.32
2023-01-30T22:34:44.572Z,2.40
2023-01-30T22:37:12.657Z,2.38
2023-01-30T22:39:41.023Z,2.40
2023-01-30T22:42:09.149Z,2.32
2023-01-30T22:44:37.496Z,2.30
2023-01-30T22:47:05.437Z,2.30
2023-01-30T22:49:33.199Z,2.30
2023-01-30T22:52:01.775Z,2.30
2023-01-30T22:54:29.682Z,2.30
2023-01-30T22:56:57.380Z,2.30
2023-01-30T22:59:25.208Z,2.32
2023-01-30T23:01:55.038Z,2.30
2023-01-30T23:04:23.757Z,2.30
2023-01-30T23:06:52.443Z,2.30
2023-01-30T23:09:23.287Z,2.28
2023-01-30T23:12:15.900Z,2.22
2023-01-30T23:14:45.133Z,2.30
2023-01-30T23:17:31.934Z,2.30
2023-01-30T23:19:59.599Z,2.30
2023-01-30T23:22:27.267Z,2.30
2023-01-30T23:24:54.989Z,2.30
2023-01-30T23:27:22.709Z,2.30
2023-01-30T23:29:50.374Z,2.20
2023-01-30T23:32:20.933Z,2.20
2023-01-30T23:34:48.725Z,2.20
2023-01-30T23:37:16.982Z,2.20
2023-01-30T23:39:45.434Z,2.24
2023-01-30T23:42:13.171Z,2.30
2023-01-30T23:44:40.923Z,2.30
2023-01-30T23:47:08.600Z,2.30
2023-01-30T23:49:36.555Z,2.30
2023-01-30T23:52:04.325Z,2.30
2023-01-30T23:54:32.064Z,2.30
2023-01-30T23:56:59.795Z,2.30
2023-01-30T23:59:27.497Z,2.36
